Decoded Metar for KGOK (GUTHRIE in OK, USA) (IATA:GOK) | Meteo·Mobile Aviation Weather
aviador You're here:

KGOK Decoded Metar

GUTHRIE in OK, USA
Report Time2019-03-19 22:53:00
UTC Time2019-03-19 23:25:47
Flight Rules vfr VFR
Wind220° at 17 Gusting to 24 kt
W.Decomp.*RWY 16: 10.2 kt HW 13.6 kt RCW
W.Rank220° ranks 14
Current wind is above 220° avg. (8.6)
Visibility9999 m
Phenomena:N/A
Clouds:Few 090 Hf
Expected CloudBase > 8,000 ft AGL from Temp-Dew spread
CeilingNone
Temp21°C (ISA +8)
Dew Point01°C (27% RH)
AAT13.1°C
QNH1019 hPa
Density Alt1,903 ft
Elevation1,063 ft
Report Wrong Elevation
Raw Report
KGOK 192253Z AUTO 22017G24KT 10SM FEW090 21/01 A3008 RMK AO2 PK
WND 20026/2200 SLP185 T02110006=

Extra information for KGOK:More info

Metar Taf Metar & Taf Last 4 Metars F.Rules Stats Wind Profile Meteogram Temp Stats Airport Information Weather charts Add Link Nearby VenuesMetar ALERT Operation Metar Decoded Social comments

AIRNAV info for KGOK